• Join FlightAware (Why Join?)
  • Login
  • US Flag 
01:59AM EDT


 

Airport Tracker/Info


-or-


 

Live Flight TrackerFlight Track Log ✈ ASQ5678 ✈ 22-Jun-2013 ✈ KMKE - KCLE

Flight Track Log - Related Links

Times and Time Zones

All times are in EDT time to prevent confusion due to time zone crossing. See the ASQ5678 flight status page for this flight to view local times or setup timezone preferences in your user account.

Time Position Orientation Groundspeed Altitude Reporting Facility
EDT Latitude Longitude Course Direction KTS MPH feet Rate Location/Type
01:35PM 42.9167 -87.9000 90° East 175 201 1,400  Level KMKE
01:36PM 42.8667 -87.8833 166° South 225 259 3,700 2,040 Climbing KMKE
01:37PM 42.8586 -87.8325 102° East 252 290 4,500 2,460 Climbing Chicago Center
01:38PM 42.8600 -87.7253 89° East 284 327 7,500 2,640 Climbing Chicago Center
01:39PM 42.8367 -87.4073 98° East  Level Estimated
01:39PM 42.8578 -87.6139 92° East 292 336 10,000  Level Chicago Center
01:40PM 42.8089 -87.2851 90° East  Level Estimated
01:40PM 42.8536 -87.4883 93° East 322 371 11,400  Level Chicago Center
01:41PM 42.8511 -87.3358 91° East 378 435 12,900 1,680 Climbing Chicago Center
01:42PM 42.8461 -87.1872 93° East 392 451 14,900 1,980 Climbing Chicago Center
01:43PM 42.8422 -87.0364 92° East 398 458 17,000 1,740 Climbing Chicago Center
01:44PM 42.8378 -86.8869 92° East 396 456 18,500 1,260 Climbing Chicago Center
01:45PM 42.8331 -86.7311 92° East 410 472 19,600 1,260 Climbing Chicago Center
01:46PM 42.8267 -86.5381 93° East 426 490 21,100 1,440 Climbing Chicago Center
01:47PM 42.8206 -86.3772 93° East 429 494 22,600 1,200 Climbing Chicago Center
01:48PM 42.8147 -86.2169 93° East 429 494 23,700 1,080 Climbing Chicago Center
01:49PM 42.8083 -86.0556 93° East 432 497 24,900 600 Climbing Chicago Center
01:50PM 42.8019 -85.8894 93° East 444 511 25,000  Climbing Chicago Center
01:51PM 42.7919 -85.6786 94° East 468 539 25,000  Level Chicago Center
01:52PM 42.7842 -85.4994 93° East 476 548 25,000  Level Chicago Center
01:53PM 42.7783 -85.3192 92° East 479 551 25,000  Level Chicago Center
01:54PM 42.7481 -85.1469 103° East 473 544 25,000  Level Chicago Center
01:55PM 42.7144 -84.9775 105° East 467 537 25,000  Level Chicago Center
01:56PM 42.6767 -84.8086 107° East 467 537 25,000 -540 Level Chicago Center
01:57PM 42.6131 -84.6203 115° Southeast 462 532 24,000 -540 Descending Chicago Center
01:58PM 42.5531 -84.4683 118° Southeast 458 527 24,000  Level Chicago Center
01:59PM 42.4944 -84.3197 118° Southeast 448 516 24,000  Level Chicago Center
02:00PM 42.4256 -84.1558 120° Southeast 448 516 24,000 -660 Level Cleveland Center
02:01PM 42.3675 -84.0092 118° Southeast 448 516 22,700 -1,500 Descending Cleveland Center
02:02PM 42.3111 -83.8686 118° Southeast 448 516 21,000 -900 Descending Cleveland Center
02:03PM 42.2544 -83.7281 119° Southeast 443 510 21,000  Level Cleveland Center
02:04PM 42.1958 -83.5906 120° Southeast 432 497 21,000  Level Cleveland Center
02:05PM 42.1450 -83.4594 118° Southeast 432 497 21,000  Level Cleveland Center
02:06PM 42.0878 -83.3197 119° Southeast 427 491 21,000  Level Cleveland Center
02:07PM 42.0286 -83.1717 118° Southeast 432 497 21,000  Level Cleveland Center
02:08PM 42.0050 -83.0142 101° East 427 491 21,000 -720 Level Cleveland Center
02:09PM 41.9853 -82.8542 99° East 427 491 19,600 -1,680 Descending Cleveland Center
02:10PM 41.9739 -82.6975 96° East 427 491 17,700 -1,920 Descending Cleveland Center
02:11PM 41.9556 -82.5489 99° East 421 484 15,800 -2,400 Descending Cleveland Center
02:12PM 41.9161 -82.4164 112° Southeast 392 451 13,000 -2,760 Descending Cleveland Center
02:13PM 41.8742 -82.2897 114° Southeast 380 437 10,300 -1,500 Descending Cleveland Center
02:14PM 41.8281 -82.1658 117° Southeast 370 426 10,000 -240 Descending Cleveland Center
02:15PM 41.7608 -82.0586 130° Southeast 356 410 9,900 -1,200 Descending Cleveland Center
02:16PM 41.7075 -81.9739 130° Southeast 317 365 7,700 -2,220 Descending Cleveland Center
02:17PM 41.6564 -81.8922 130° Southeast 290 334 5,500 -1,980 Descending Cleveland Center
02:18PM 41.6114 -81.8272 133° Southeast 275 316 3,800 -1,620 Descending Cleveland Center
02:19PM 41.5825 -81.7878 134° Southeast 263 303 3,100 -840 Descending Cleveland Center
02:19PM 41.5600 -81.7597 137° Southeast 265 305 3,000 -120 Descending Cleveland Center
02:20PM 41.5267 -81.7425 159° South 224 258 3,000  Level Cleveland Center